Airfield :
LOGIN :

Register | Disclaimer

   EN    FR    IT 

 










Legend :    VFR   Marginal VFR   IFR   Intensive IFR   Very Intensive IFR
Visi :
Ceiling :
>= 8 km
>= 3000ft
5 to 8 km
1000 to 3000 ft
1500m to 5 km
500 to 1000 ft
800 to 1500m
200 to 500 ft
< 800m
< 200 ft
Symbols :   Thunderstorms  Fog  Heavy snow  Heavy precipitations  Wind > 20 kt
SIGMETs :     Misc.  Thunderstorms  Icing  Turbulence  Mountain Waves  Volcanic Ashes






- Airport Elevation : 202 ft
- IATA code : LGW


EGKK - London Gatwick

CURRENT METAR :
  • 210450Z 08001KT 5000 HZ NSC 04/03 Q1018

EXPIRED METARs :
  • 210420Z 07001KT 6000 NSC 04/03 Q1018
  • 210350Z 07002KT 6000 NSC 04/03 Q1018
  • 210320Z 25001KT 6000 NSC 04/03 Q1018
  • 210250Z 31001KT 6000 NSC 05/03 Q1018
  • 210220Z 23001KT 6000 NSC 05/03 Q1018

TAF TAF EGKK
Valid from the 21 at 00:00 until the 22 at 06:00 UTC


202312Z 2100/2206 VRB03KT 6000 FEW045
TEMPO 2100/2108 3000 BR
PROB30 2102/2107 0300 FG BKN001
BECMG 2108/2111 06012KT 9999



MET'MAP, your aeronautical weather chart ! - Copyright ORBIFLY December 2007 - Disclaimer

ORBIFLY MET'MAP TEAM :

Programming & Development : Alexandra Zaïnal
Concept & original design : Baudouin d'Aumeries
Assistance for programming : Marc-Olivier Méhu
Technical & hardware support : Manuel Goepfert

Contact : metmap@orbifly.com




SOURCES & CREDITS :

   NOAA